createdAt,value
2022-09-20T00:00:18.030Z,29.753
2022-09-20T00:05:17.982Z,29.752
2022-09-20T00:10:17.792Z,29.751
2022-09-20T00:15:18.236Z,29.746
2022-09-20T00:20:17.826Z,29.745
2022-09-20T00:25:17.790Z,29.742
2022-09-20T00:30:18.535Z,29.739
2022-09-20T00:35:17.977Z,29.736
2022-09-20T00:40:17.936Z,29.735
2022-09-20T00:45:18.156Z,29.732
2022-09-20T00:50:17.909Z,29.732
2022-09-20T00:55:17.887Z,29.730
2022-09-20T01:00:18.896Z,29.730
2022-09-20T01:05:18.010Z,29.728
2022-09-20T01:10:18.134Z,29.727
2022-09-20T01:15:17.968Z,29.726
2022-09-20T01:20:17.885Z,29.722
2022-09-20T01:25:18.180Z,29.717
2022-09-20T01:30:18.024Z,29.716
2022-09-20T01:35:18.209Z,29.712
2022-09-20T01:40:18.045Z,29.707
2022-09-20T01:45:18.227Z,29.705
2022-09-20T01:50:17.924Z,29.708
2022-09-20T01:55:18.060Z,29.717
2022-09-20T02:00:18.174Z,29.724
2022-09-20T02:05:18.185Z,29.731
2022-09-20T02:10:18.229Z,29.733
2022-09-20T02:15:18.239Z,29.724
2022-09-20T02:20:18.345Z,29.710
2022-09-20T02:25:18.180Z,29.711
2022-09-20T02:30:18.235Z,29.713
2022-09-20T02:35:18.309Z,29.703
2022-09-20T02:40:18.081Z,29.701
2022-09-20T02:45:18.395Z,29.695
2022-09-20T02:50:18.080Z,29.699
2022-09-20T02:55:18.149Z,29.697
2022-09-20T03:00:19.865Z,29.694
2022-09-20T03:05:18.113Z,29.687
2022-09-20T03:10:18.393Z,29.683
2022-09-20T03:15:16.203Z,29.679
2022-09-20T03:20:16.410Z,29.679
2022-09-20T03:25:16.375Z,29.681
2022-09-20T03:30:16.468Z,29.683
2022-09-20T03:35:16.194Z,29.689
2022-09-20T03:40:16.409Z,29.691
2022-09-20T03:45:16.759Z,29.694
2022-09-20T03:50:16.350Z,29.696
2022-09-20T03:55:16.502Z,29.699
2022-09-20T04:00:17.506Z,29.701
2022-09-20T04:05:17.361Z,29.701
2022-09-20T04:10:17.338Z,29.704
2022-09-20T04:15:17.462Z,29.706
2022-09-20T04:20:17.958Z,29.710
2022-09-20T04:25:17.450Z,29.706
2022-09-20T04:30:17.436Z,29.704
2022-09-20T04:35:17.472Z,29.705
2022-09-20T04:40:17.555Z,29.700
2022-09-20T04:45:17.523Z,29.702
2022-09-20T04:50:17.558Z,29.704
2022-09-20T04:55:17.555Z,29.706
2022-09-20T05:00:18.543Z,29.706
2022-09-20T05:05:17.283Z,29.704
2022-09-20T05:10:17.517Z,29.702
2022-09-20T05:15:17.499Z,29.707
2022-09-20T05:20:17.427Z,29.710
2022-09-20T05:25:17.389Z,29.714
2022-09-20T05:30:17.831Z,29.715
2022-09-20T05:35:17.569Z,29.715
2022-09-20T05:40:17.632Z,29.718
2022-09-20T05:45:17.620Z,29.718
2022-09-20T05:50:17.651Z,29.713
2022-09-20T05:55:17.389Z,29.714
2022-09-20T06:00:17.704Z,29.713
2022-09-20T06:05:17.524Z,29.713
2022-09-20T06:10:17.783Z,29.714
2022-09-20T06:15:17.725Z,29.719
2022-09-20T06:20:17.679Z,29.723
2022-09-20T06:25:17.573Z,29.727
2022-09-20T06:30:17.937Z,29.723
2022-09-20T06:35:17.519Z,29.722
2022-09-20T06:40:17.801Z,29.717
2022-09-20T06:45:18.357Z,29.711
2022-09-20T06:50:17.802Z,29.708
2022-09-20T06:55:17.763Z,29.714
2022-09-20T07:00:19.662Z,29.720
2022-09-20T07:05:17.612Z,29.721
2022-09-20T07:10:17.769Z,29.724
2022-09-20T07:15:17.743Z,29.724
2022-09-20T07:20:21.558Z,29.726
2022-09-20T07:25:17.698Z,29.726
2022-09-20T07:30:18.218Z,29.724
2022-09-20T07:35:17.659Z,29.726
2022-09-20T07:40:19.472Z,29.727
2022-09-20T07:45:17.948Z,29.722
2022-09-20T07:50:17.690Z,29.719
2022-09-20T07:55:17.712Z,29.715
2022-09-20T08:00:18.185Z,29.713
2022-09-20T08:05:17.763Z,29.714
2022-09-20T08:10:17.763Z,29.717
2022-09-20T08:15:17.971Z,29.715
2022-09-20T08:20:17.818Z,29.724
2022-09-20T08:25:18.242Z,29.722
2022-09-20T08:30:17.898Z,29.723
2022-09-20T08:35:17.906Z,29.726
2022-09-20T08:40:17.936Z,29.728
2022-09-20T08:45:53.727Z,29.728
2022-09-20T08:50:18.075Z,29.728
2022-09-20T08:55:17.985Z,29.732
2022-09-20T09:00:19.498Z,29.735
2022-09-20T09:05:18.473Z,29.736
2022-09-20T09:10:19.222Z,29.729
2022-09-20T09:15:18.162Z,29.732
2022-09-20T09:20:18.027Z,29.737
2022-09-20T09:25:18.085Z,29.739
2022-09-20T09:30:18.004Z,29.743
2022-09-20T09:35:18.377Z,29.746
2022-09-20T09:40:18.072Z,29.748
2022-09-20T09:45:18.101Z,29.752
2022-09-20T09:50:18.125Z,29.754
2022-09-20T09:55:18.086Z,29.757
2022-09-20T10:00:21.870Z,29.757
2022-09-20T10:05:18.173Z,29.758
2022-09-20T10:10:18.346Z,29.761
2022-09-20T10:15:18.297Z,29.764
2022-09-20T10:20:18.026Z,29.764
2022-09-20T10:25:18.224Z,29.766
2022-09-20T10:30:18.485Z,29.768
2022-09-20T10:35:18.051Z,29.771
2022-09-20T10:40:18.139Z,29.772
2022-09-20T10:45:43.906Z,29.773
2022-09-20T10:50:18.170Z,29.774
2022-09-20T10:55:18.148Z,29.774
2022-09-20T11:00:19.068Z,29.771
2022-09-20T11:05:18.055Z,29.770
2022-09-20T11:10:18.139Z,29.773
2022-09-20T11:15:18.488Z,29.773
2022-09-20T11:20:18.312Z,29.771
2022-09-20T11:25:21.663Z,29.771
2022-09-20T11:30:16.417Z,29.772
2022-09-20T11:35:16.273Z,29.773
2022-09-20T11:40:16.330Z,29.773
2022-09-20T11:45:16.651Z,29.773
2022-09-20T11:50:16.238Z,29.774
2022-09-20T11:55:16.606Z,29.776
2022-09-20T12:00:16.391Z,29.776
2022-09-20T12:05:16.344Z,29.780
2022-09-20T12:10:16.322Z,29.782
2022-09-20T12:15:16.575Z,29.783
2022-09-20T12:20:19.276Z,29.781
2022-09-20T12:25:16.507Z,29.779
2022-09-20T12:30:16.641Z,29.782
2022-09-20T12:35:17.532Z,29.781
2022-09-20T12:40:16.393Z,29.784
2022-09-20T12:45:16.520Z,29.785
2022-09-20T12:50:16.348Z,29.785
2022-09-20T12:55:16.501Z,29.783
2022-09-20T13:00:18.301Z,29.785
2022-09-20T13:05:16.796Z,29.783
2022-09-20T13:10:16.416Z,29.784
2022-09-20T13:15:16.505Z,29.788
2022-09-20T13:20:16.398Z,29.790
2022-09-20T13:25:16.550Z,29.785
2022-09-20T13:30:16.806Z,29.787
2022-09-20T13:35:16.631Z,29.791
2022-09-20T13:40:16.680Z,29.787
2022-09-20T13:45:16.815Z,29.790
2022-09-20T13:50:16.651Z,29.789
2022-09-20T13:55:16.419Z,29.788
2022-09-20T14:00:16.830Z,29.792
2022-09-20T14:05:16.652Z,29.791
2022-09-20T14:10:16.650Z,29.791
2022-09-20T14:15:16.997Z,29.790
2022-09-20T14:20:16.653Z,29.787
2022-09-20T14:25:16.551Z,29.786
2022-09-20T14:30:16.910Z,29.792
2022-09-20T14:35:16.737Z,29.800
2022-09-20T14:40:16.842Z,29.797
2022-09-20T14:45:16.754Z,29.796
2022-09-20T14:50:16.737Z,29.795
2022-09-20T14:55:16.642Z,29.795
2022-09-20T15:00:17.952Z,29.794
2022-09-20T15:05:16.594Z,29.802
2022-09-20T15:10:16.627Z,29.801
2022-09-20T15:15:16.808Z,29.796
2022-09-20T15:20:18.675Z,29.796
2022-09-20T15:25:16.815Z,29.798
2022-09-20T15:30:17.227Z,29.797
2022-09-20T15:35:16.675Z,29.797
2022-09-20T15:40:16.905Z,29.798
2022-09-20T15:45:16.826Z,29.798
2022-09-20T15:50:16.887Z,29.800
2022-09-20T15:55:16.708Z,29.799
2022-09-20T16:00:17.086Z,29.798
2022-09-20T16:05:16.964Z,29.798
2022-09-20T16:10:16.880Z,29.798
2022-09-20T16:15:16.857Z,29.799
2022-09-20T16:20:16.782Z,29.800
2022-09-20T16:25:16.978Z,29.802
2022-09-20T16:30:17.116Z,29.803
2022-09-20T16:35:16.864Z,29.803
2022-09-20T16:40:17.187Z,29.803
2022-09-20T16:45:17.130Z,29.801
2022-09-20T16:50:16.845Z,29.801
2022-09-20T16:55:16.828Z,29.797
2022-09-20T17:00:18.517Z,29.797
2022-09-20T17:05:17.029Z,29.798
2022-09-20T17:10:17.058Z,29.798
2022-09-20T17:15:17.438Z,29.799
2022-09-20T17:20:16.984Z,29.798
2022-09-20T17:25:16.991Z,29.799
2022-09-20T17:30:17.057Z,29.801
2022-09-20T17:35:17.139Z,29.800
2022-09-20T17:40:16.993Z,29.801
2022-09-20T17:45:17.097Z,29.801
2022-09-20T17:50:16.978Z,29.803
2022-09-20T17:55:17.088Z,29.802
2022-09-20T18:00:18.515Z,29.800
2022-09-20T18:05:17.192Z,29.800
2022-09-20T18:10:17.002Z,29.799
2022-09-20T18:15:17.061Z,29.803
2022-09-20T18:20:17.207Z,29.804
2022-09-20T18:25:16.997Z,29.807
2022-09-20T18:30:17.310Z,29.806
2022-09-20T18:35:17.070Z,29.808
2022-09-20T18:40:17.336Z,29.808
2022-09-20T18:45:17.042Z,29.807
2022-09-20T18:50:17.273Z,29.805
2022-09-20T18:55:17.186Z,29.802
2022-09-20T19:00:18.525Z,29.801
2022-09-20T19:05:17.324Z,29.803
2022-09-20T19:10:17.105Z,29.801
2022-09-20T19:15:17.775Z,29.800
2022-09-20T19:20:17.182Z,29.797
2022-09-20T19:25:17.145Z,29.797
2022-09-20T19:30:17.279Z,29.796
2022-09-20T19:35:17.132Z,29.796
2022-09-20T19:40:17.244Z,29.794
2022-09-20T19:45:17.566Z,29.793
2022-09-20T19:50:17.160Z,29.792
2022-09-20T19:55:17.311Z,29.792
2022-09-20T20:00:17.346Z,29.795
2022-09-20T20:05:17.384Z,29.793
2022-09-20T20:10:17.224Z,29.795
2022-09-20T20:15:17.388Z,29.797
2022-09-20T20:20:17.581Z,29.795
2022-09-20T20:25:17.541Z,29.793
2022-09-20T20:30:17.735Z,29.795
2022-09-20T20:35:17.410Z,29.796
2022-09-20T20:40:17.338Z,29.799
2022-09-20T20:45:17.536Z,29.799
2022-09-20T20:50:17.324Z,29.797
2022-09-20T20:55:17.324Z,29.799
2022-09-20T21:00:18.905Z,29.799
2022-09-20T21:05:17.413Z,29.801
2022-09-20T21:10:17.397Z,29.803
2022-09-20T21:15:17.538Z,29.805
2022-09-20T21:20:17.437Z,29.804
2022-09-20T21:25:17.388Z,29.805
2022-09-20T21:30:17.741Z,29.807
2022-09-20T21:35:17.386Z,29.808
2022-09-20T21:40:17.496Z,29.808
2022-09-20T21:45:17.651Z,29.812
2022-09-20T21:50:17.478Z,29.811
2022-09-20T21:55:17.313Z,29.811
2022-09-20T22:00:17.421Z,29.812
2022-09-20T22:05:17.592Z,29.812
2022-09-20T22:10:17.940Z,29.815
2022-09-20T22:15:17.820Z,29.816
2022-09-20T22:20:17.805Z,29.818
2022-09-20T22:25:17.690Z,29.819
2022-09-20T22:30:17.633Z,29.821
2022-09-20T22:35:17.457Z,29.822
2022-09-20T22:40:17.734Z,29.826
2022-09-20T22:45:17.614Z,29.828
2022-09-20T22:50:17.618Z,29.827
2022-09-20T22:55:17.573Z,29.828
2022-09-20T23:00:18.775Z,29.826
2022-09-20T23:05:17.630Z,29.828
2022-09-20T23:10:17.598Z,29.829
2022-09-20T23:15:18.100Z,29.832
2022-09-20T23:20:17.590Z,29.833
2022-09-20T23:25:17.636Z,29.834
2022-09-20T23:30:17.816Z,29.835
2022-09-20T23:35:17.742Z,29.835
2022-09-20T23:40:17.728Z,29.839
2022-09-20T23:45:17.785Z,29.839
2022-09-20T23:50:17.821Z,29.841
2022-09-20T23:55:17.810Z,29.840
